Time;durP1;ratioP1;P1;durP2;ratioP2;P2;SDS_P1;SDS_P2;PMS_P1;PMS_P2;Temp;Humidity;BMP_temperature;BMP_pressure;BME280_temperature;BME280_humidity;BME280_pressure;Samples;Min_cycle;Max_cycle;Signal;HPM_P1;HPM_P2
2022/02/15 00:00:21;;;;;;;1.70;0.60;;;;;;;3.66;97.30;94858.00;5032142;28;20199;-78
2022/02/15 00:02:46;;;;;;;1.63;0.60;;;;;;;3.62;97.34;94862.56;5014549;28;20541;-78
2022/02/15 00:05:12;;;;;;;1.23;0.70;;;;;;;3.60;97.47;94866.97;5033447;28;20232;-77
2022/02/15 00:07:37;;;;;;;0.87;0.63;;;;;;;3.67;97.27;94865.56;5031772;28;20186;-77
2022/02/15 00:10:04;;;;;;;0.67;0.60;;;;;;;3.72;97.37;94872.09;5031672;28;20274;-78
2022/02/15 00:12:29;;;;;;;0.93;0.67;;;;;;;3.63;96.86;94869.31;5031148;28;20194;-77
2022/02/15 00:14:54;;;;;;;0.60;0.40;;;;;;;3.53;97.52;94878.66;5015513;28;20279;-77
2022/02/15 00:17:20;;;;;;;1.20;0.60;;;;;;;3.54;97.14;94877.75;5014972;28;20200;-78
2022/02/15 00:19:45;;;;;;;0.70;0.50;;;;;;;3.53;97.06;94873.53;5031833;28;20273;-78
2022/02/15 00:22:10;;;;;;;0.80;0.60;;;;;;;3.51;97.32;94875.41;5014359;28;20208;-78
2022/02/15 00:24:35;;;;;;;0.87;0.60;;;;;;;3.48;97.95;94867.97;5032580;28;20648;-77
2022/02/15 00:27:01;;;;;;;1.83;0.70;;;;;;;3.49;97.62;94858.50;5032202;28;20177;-77
2022/02/15 00:29:26;;;;;;;0.60;0.60;;;;;;;3.48;97.59;94862.03;5030694;28;20183;-76
2022/02/15 00:31:52;;;;;;;0.63;0.60;;;;;;;3.52;97.67;94855.69;5031729;28;20685;-78
2022/02/15 00:34:17;;;;;;;0.70;0.70;;;;;;;3.44;97.92;94864.00;5031383;28;20699;-78
2022/02/15 00:36:42;;;;;;;1.53;1.43;;;;;;;3.38;98.18;94854.22;5031220;28;20192;-78
2022/02/15 00:39:09;;;;;;;1.50;0.80;;;;;;;3.34;98.87;94860.53;5014895;28;20270;-78
2022/02/15 00:41:34;;;;;;;0.77;0.70;;;;;;;3.33;99.35;94851.19;5030136;28;20562;-78
2022/02/15 00:43:59;;;;;;;0.83;0.83;;;;;;;3.28;98.75;94854.16;5031167;28;20180;-77
2022/02/15 00:46:25;;;;;;;0.77;0.60;;;;;;;3.36;99.36;94856.13;5031658;28;20187;-78
2022/02/15 00:48:51;;;;;;;0.90;0.77;;;;;;;3.25;99.71;94854.38;5032401;28;20180;-77
2022/02/15 00:51:16;;;;;;;0.97;0.83;;;;;;;3.24;99.68;94854.50;5031815;28;20233;-77
2022/02/15 00:53:41;;;;;;;1.13;1.03;;;;;;;3.22;100.00;94854.63;5031425;28;20186;-78
2022/02/15 00:56:07;;;;;;;1.00;0.77;;;;;;;3.26;100.00;94857.75;5031982;28;20196;-78
2022/02/15 00:58:32;;;;;;;0.73;0.67;;;;;;;3.25;99.83;94856.13;5031588;28;20239;-77
2022/02/15 01:00:57;;;;;;;0.93;0.73;;;;;;;3.26;99.79;94860.31;5032603;28;20194;-77
2022/02/15 01:03:22;;;;;;;0.90;0.80;;;;;;;3.18;99.45;94857.53;5030203;28;20190;-78
2022/02/15 01:05:48;;;;;;;1.03;0.70;;;;;;;3.14;99.87;94862.09;5046169;28;20185;-77
2022/02/15 01:08:13;;;;;;;0.70;0.70;;;;;;;3.18;100.00;94863.50;5031151;28;20175;-77
2022/02/15 01:10:39;;;;;;;1.23;0.73;;;;;;;3.22;99.85;94858.94;5032302;28;20195;-77
2022/02/15 01:13:05;;;;;;;0.70;0.70;;;;;;;3.16;99.27;94859.41;5030578;28;20818;-77
2022/02/15 01:15:30;;;;;;;0.73;0.60;;;;;;;3.13;100.00;94863.03;5030921;28;20202;-78
2022/02/15 01:17:55;;;;;;;2.03;0.97;;;;;;;3.11;100.00;94858.03;5031297;28;20287;-77
2022/02/15 01:20:21;;;;;;;1.07;0.87;;;;;;;3.10;99.74;94865.84;5031014;28;20267;-77
2022/02/15 01:22:46;;;;;;;0.83;0.60;;;;;;;3.02;100.00;94861.31;5022177;28;20647;-77
2022/02/15 01:25:11;;;;;;;1.23;0.90;;;;;;;2.99;100.00;94856.38;5030744;28;20180;-77
2022/02/15 01:27:37;;;;;;;0.80;0.80;;;;;;;2.98;100.00;94856.50;5029463;28;20655;-77
2022/02/15 01:30:04;;;;;;;0.70;0.70;;;;;;;2.97;100.00;94858.25;5030870;28;20175;-79
2022/02/15 01:32:29;;;;;;;2.93;0.80;;;;;;;2.83;100.00;94864.47;5012635;28;20181;-76
2022/02/15 01:34:54;;;;;;;0.70;0.67;;;;;;;2.92;100.00;94864.69;5013886;28;20184;-76
2022/02/15 01:37:20;;;;;;;1.50;0.90;;;;;;;2.97;100.00;94862.56;5017386;28;20720;-76
2022/02/15 01:39:45;;;;;;;0.77;0.60;;;;;;;3.01;99.88;94862.25;5035159;28;20197;-76
2022/02/15 01:42:10;;;;;;;0.93;0.60;;;;;;;3.07;99.52;94866.88;5035322;28;20253;-76
2022/02/15 01:44:36;;;;;;;1.80;0.60;;;;;;;3.00;99.52;94868.28;5013694;28;20177;-76
2022/02/15 01:47:02;;;;;;;1.20;0.80;;;;;;;3.12;98.91;94866.53;5026463;28;20180;-77
2022/02/15 01:49:28;;;;;;;1.30;0.70;;;;;;;3.09;99.53;94859.91;5016681;28;20568;-76
2022/02/15 01:51:53;;;;;;;1.50;0.73;;;;;;;3.11;98.82;94863.16;5032253;28;20206;-76
2022/02/15 01:54:18;;;;;;;1.17;0.77;;;;;;;2.99;99.62;94865.84;5033181;28;20282;-77
2022/02/15 01:56:44;;;;;;;2.67;0.73;;;;;;;2.97;100.00;94863.38;5032851;28;20190;-77
2022/02/15 01:59:09;;;;;;;1.37;0.83;;;;;;;2.99;99.78;94864.09;5033376;28;20198;-77
2022/02/15 02:01:34;;;;;;;1.53;0.93;;;;;;;3.06;99.51;94857.56;5032533;28;20200;-77
2022/02/15 02:04:00;;;;;;;1.30;0.80;;;;;;;3.02;99.36;94861.31;5033171;28;20180;-76
2022/02/15 02:06:25;;;;;;;1.50;0.90;;;;;;;3.01;99.25;94858.84;5032698;28;20180;-77
2022/02/15 02:08:50;;;;;;;2.07;0.73;;;;;;;3.05;98.78;94866.19;5033318;28;20171;-77
2022/02/15 02:11:15;;;;;;;1.20;0.63;;;;;;;3.04;98.65;94867.13;5031883;28;20755;-77
2022/02/15 02:13:41;;;;;;;0.97;0.70;;;;;;;3.01;98.36;94867.38;5033761;28;20185;-77
2022/02/15 02:16:06;;;;;;;1.03;0.73;;;;;;;2.99;97.92;94868.41;5035158;28;20232;-77
2022/02/15 02:18:31;;;;;;;1.00;0.67;;;;;;;3.02;97.53;94861.31;5035104;28;20198;-77
2022/02/15 02:21:04;;;;;;;1.20;0.70;;;;;;;3.03;97.31;94857.78;5035508;28;20290;-77
2022/02/15 02:23:30;;;;;;;1.17;0.73;;;;;;;3.10;96.23;94860.72;5033753;28;20237;-77
2022/02/15 02:25:55;;;;;;;1.10;0.60;;;;;;;3.11;95.80;94862.34;5034228;28;20664;-77
2022/02/15 02:28:21;;;;;;;1.03;1.00;;;;;;;3.11;95.63;94863.16;5034239;28;20186;-77
2022/02/15 02:30:46;;;;;;;1.70;0.77;;;;;;;3.13;95.23;94861.28;5034002;28;20233;-77
2022/02/15 02:33:12;;;;;;;2.77;1.23;;;;;;;3.12;95.62;94867.34;5033478;28;20186;-77
2022/02/15 02:35:37;;;;;;;2.23;0.60;;;;;;;3.14;95.27;94862.09;5034270;28;20188;-77
2022/02/15 02:38:03;;;;;;;4.73;1.00;;;;;;;3.16;95.23;94867.91;5033729;28;20195;-78
2022/02/15 02:40:28;;;;;;;1.37;0.67;;;;;;;3.13;95.34;94873.28;5033439;28;20201;-77
2022/02/15 02:42:53;;;;;;;2.77;0.90;;;;;;;3.17;95.50;94874.66;5032504;28;20201;-77
2022/02/15 02:45:21;;;;;;;0.97;0.80;;;;;;;3.16;95.76;94867.09;5033264;28;20175;-77
2022/02/15 02:47:49;;;;;;;1.73;0.90;;;;;;;3.16;95.81;94869.66;5032755;28;20268;-77
2022/02/15 02:50:16;;;;;;;1.13;0.70;;;;;;;3.16;96.26;94872.22;5032934;28;20204;-77
2022/02/15 02:52:41;;;;;;;1.07;0.70;;;;;;;3.20;96.74;94876.19;5032371;28;20192;-77
2022/02/15 02:55:07;;;;;;;1.37;0.90;;;;;;;3.24;96.33;94877.59;5033376;28;20178;-77
2022/02/15 02:57:35;;;;;;;1.40;0.70;;;;;;;3.18;96.64;94884.03;5016185;28;20203;-77
2022/02/15 03:00:02;;;;;;;1.40;0.87;;;;;;;3.19;95.76;94877.97;5032871;28;20192;-78
2022/02/15 03:02:27;;;;;;;1.73;0.83;;;;;;;3.16;95.90;94880.75;5032544;28;20229;-77
2022/02/15 03:04:52;;;;;;;0.93;0.70;;;;;;;3.11;96.05;94883.69;5032060;28;20189;-76
2022/02/15 03:07:18;;;;;;;0.93;0.80;;;;;;;3.18;96.19;94880.63;5034150;28;20297;-78
2022/02/15 03:09:43;;;;;;;1.37;0.93;;;;;;;3.24;95.33;94882.72;5032614;28;20204;-78
2022/02/15 03:12:10;;;;;;;1.10;0.80;;;;;;;3.20;95.50;94891.59;5033686;28;20775;-78
2022/02/15 03:14:35;;;;;;;1.57;0.97;;;;;;;3.21;95.36;94888.09;5015956;28;20191;-77
2022/02/15 03:17:01;;;;;;;3.20;0.97;;;;;;;3.17;95.38;94884.94;5031787;28;20552;-76
2022/02/15 03:19:26;;;;;;;0.73;0.70;;;;;;;3.17;95.37;94889.25;5032491;28;20546;-77
2022/02/15 03:21:51;;;;;;;1.13;0.70;;;;;;;3.18;95.44;94893.44;5033196;28;20261;-77
2022/02/15 03:24:16;;;;;;;0.90;0.63;;;;;;;3.18;95.27;94893.44;5034280;28;20281;-77
2022/02/15 03:26:45;;;;;;;3.53;1.10;;;;;;;3.19;94.98;94895.91;5016393;28;20272;-77
2022/02/15 03:29:13;;;;;;;0.67;0.53;;;;;;;3.17;95.23;94896.94;5031558;28;20175;-77
2022/02/15 03:31:40;;;;;;;2.30;0.90;;;;;;;3.14;95.13;94900.56;5030893;28;20199;-77
2022/02/15 03:34:05;;;;;;;4.03;0.77;;;;;;;3.13;95.22;94910.03;5014615;28;20273;-76
2022/02/15 03:36:30;;;;;;;1.87;0.80;;;;;;;3.17;95.26;94908.03;5030526;28;20262;-76
2022/02/15 03:38:56;;;;;;;2.83;0.80;;;;;;;3.22;94.69;94910.25;5031873;28;20623;-76
2022/02/15 03:44:05;;;;;;;3.47;0.90;;;;;;;3.35;93.04;94909.16;5031443;28;20320;-77
2022/02/15 03:46:30;;;;;;;1.93;0.83;;;;;;;3.31;93.39;94912.09;5014167;28;20180;-77
2022/02/15 03:48:55;;;;;;;2.73;1.20;;;;;;;3.28;93.15;94914.91;5031193;28;20178;-77
2022/02/15 03:51:21;;;;;;;2.43;0.87;;;;;;;3.29;93.22;94913.97;5031054;28;20217;-76
2022/02/15 03:53:46;;;;;;;1.20;0.77;;;;;;;3.26;92.78;94909.06;5032941;28;20233;-78
2022/02/15 03:56:13;;;;;;;4.60;1.00;;;;;;;3.13;93.24;94915.16;5014926;28;20178;-76
2022/02/15 03:58:39;;;;;;;1.60;0.80;;;;;;;3.06;93.31;94913.16;5030131;28;20199;-76
2022/02/15 04:01:04;;;;;;;1.33;0.80;;;;;;;3.05;93.82;94920.06;5030894;28;20265;-77
2022/02/15 04:03:29;;;;;;;1.37;0.70;;;;;;;2.94;94.28;94922.63;5029741;28;20191;-77
2022/02/15 04:05:55;;;;;;;1.83;0.70;;;;;;;2.82;94.86;94928.66;5030724;28;20183;-76
2022/02/15 04:08:22;;;;;;;2.13;0.87;;;;;;;2.75;95.06;94927.53;5030578;28;20229;-77
2022/02/15 04:10:47;;;;;;;2.80;0.67;;;;;;;2.76;95.75;94924.03;5030613;28;20278;-76
2022/02/15 04:13:13;;;;;;;2.50;0.90;;;;;;;2.72;96.08;94925.16;5030667;28;20338;-76
2022/02/15 04:15:38;;;;;;;1.40;0.87;;;;;;;2.72;96.07;94930.28;5030947;28;20269;-77
2022/02/15 04:18:03;;;;;;;1.57;0.73;;;;;;;2.71;95.96;94929.47;5032545;28;20212;-77
2022/02/15 04:20:28;;;;;;;1.10;0.90;;;;;;;2.67;96.59;94925.53;5031450;28;20202;-77
2022/02/15 04:22:54;;;;;;;2.60;0.87;;;;;;;2.69;96.42;94935.66;5032451;28;20193;-77
2022/02/15 04:25:19;;;;;;;3.40;1.00;;;;;;;2.68;96.68;94934.03;5032092;28;20201;-77
2022/02/15 04:27:44;;;;;;;3.13;1.10;;;;;;;2.71;96.57;94932.03;5015473;28;20597;-77
2022/02/15 04:30:10;;;;;;;1.33;0.90;;;;;;;2.73;96.42;94931.91;5030358;28;20193;-76
2022/02/15 04:32:35;;;;;;;5.03;1.00;;;;;;;2.78;96.33;94930.66;5029870;28;20187;-76
2022/02/15 04:35:01;;;;;;;2.73;0.90;;;;;;;2.74;96.08;94941.25;5031924;28;20486;-78
2022/02/15 04:37:26;;;;;;;2.77;1.10;;;;;;;2.82;95.91;94939.75;5030244;28;20684;-77
2022/02/15 04:39:52;;;;;;;2.03;0.90;;;;;;;2.84;95.97;94942.22;5013665;28;20194;-76
2022/02/15 04:42:17;;;;;;;1.80;1.07;;;;;;;2.83;96.00;94941.41;5029516;28;20236;-77
2022/02/15 04:44:43;;;;;;;3.80;1.00;;;;;;;2.84;96.00;94944.78;5029981;28;20175;-77
2022/02/15 04:47:08;;;;;;;4.50;1.20;;;;;;;2.86;95.94;94950.59;5029957;28;20190;-76
2022/02/15 04:49:33;;;;;;;2.60;0.67;;;;;;;2.84;96.05;94952.47;5031188;28;20274;-77
2022/02/15 04:51:59;;;;;;;2.87;1.17;;;;;;;2.82;95.97;94952.56;5030721;28;20749;-77
2022/02/15 04:54:25;;;;;;;1.07;0.73;;;;;;;2.80;95.56;94956.19;5018477;28;20186;-77
2022/02/15 04:56:50;;;;;;;4.33;1.00;;;;;;;2.78;95.72;94953.72;5016888;28;20249;-77
2022/02/15 04:59:16;;;;;;;1.67;0.80;;;;;;;2.74;95.89;94956.63;5008449;28;20214;-77
2022/02/15 05:01:41;;;;;;;4.37;1.37;;;;;;;2.70;96.10;94968.06;5026338;28;20595;-77
2022/02/15 05:04:48;;;;;;;7.50;1.80;;;;;;;2.66;96.38;94977.72;5028643;28;20174;-76
2022/02/15 05:06:53;;;;;;;2.07;1.50;;;;;;;2.64;96.19;94983.88;5029248;28;20668;-76
2022/02/15 05:09:18;;;;;;;2.20;1.00;;;;;;;2.63;96.44;94983.06;5029308;28;20174;-79
2022/02/15 05:11:44;;;;;;;3.20;0.93;;;;;;;2.60;97.29;94993.56;5028409;28;20211;-77
2022/02/15 05:14:09;;;;;;;3.70;1.17;;;;;;;2.57;98.29;94986.09;5032242;28;20184;-76
2022/02/15 05:16:34;;;;;;;2.83;1.07;;;;;;;2.58;98.86;94992.84;5028840;28;20192;-77
2022/02/15 05:19:00;;;;;;;2.80;1.30;;;;;;;2.60;99.30;94990.19;5028982;28;20215;-77
2022/02/15 05:21:25;;;;;;;1.97;1.00;;;;;;;2.63;99.41;94985.63;5011345;28;20202;-77
2022/02/15 05:23:50;;;;;;;1.70;1.30;;;;;;;2.64;100.00;94986.44;5030182;28;20581;-76
2022/02/15 05:26:16;;;;;;;4.00;2.00;;;;;;;2.66;100.00;94989.72;5029187;28;20184;-76
2022/02/15 05:28:41;;;;;;;11.27;4.80;;;;;;;2.70;100.00;94993.69;5028919;28;20181;-77
2022/02/15 05:31:09;;;;;;;9.77;5.90;;;;;;;2.69;100.00;94994.63;5028287;28;20219;-76
2022/02/15 05:33:34;;;;;;;5.53;3.87;;;;;;;2.70;100.00;94998.81;5028167;28;20190;-76
2022/02/15 05:35:59;;;;;;;5.27;1.87;;;;;;;2.72;100.00;95000.34;5024584;28;20204;-77
2022/02/15 05:38:25;;;;;;;2.13;1.30;;;;;;;2.74;100.00;95002.78;5028139;28;20583;-77
2022/02/15 05:40:50;;;;;;;3.07;1.70;;;;;;;2.74;100.00;95006.19;5029445;28;20317;-77
2022/02/15 05:43:15;;;;;;;6.37;3.30;;;;;;;2.76;100.00;95004.31;5028796;28;20184;-77
2022/02/15 05:45:40;;;;;;;3.47;2.30;;;;;;;2.81;100.00;95009.09;5029578;28;20228;-78
2022/02/15 05:48:06;;;;;;;2.67;1.60;;;;;;;2.80;100.00;95013.41;5031350;28;20205;-78
2022/02/15 05:50:49;;;;;;;6.57;1.90;;;;;;;2.83;100.00;95013.19;5030036;28;20195;-77
2022/02/15 05:53:15;;;;;;;5.77;3.90;;;;;;;2.83;100.00;95020.91;5030283;28;20184;-77
2022/02/15 05:55:40;;;;;;;7.23;5.13;;;;;;;2.83;100.00;95017.50;5022524;28;20248;-78
2022/02/15 05:58:05;;;;;;;6.93;4.90;;;;;;;2.87;100.00;95029.16;5033035;28;20272;-76
2022/02/15 06:00:31;;;;;;;8.53;4.50;;;;;;;2.88;100.00;95041.06;5029449;28;20202;-77
2022/02/15 06:02:56;;;;;;;6.73;2.30;;;;;;;2.90;100.00;95046.88;5028409;28;20652;-76
2022/02/15 06:05:21;;;;;;;3.73;1.60;;;;;;;2.88;100.00;95041.06;5032015;28;20183;-76
2022/02/15 06:07:47;;;;;;;5.77;1.10;;;;;;;2.87;100.00;95046.31;5030200;28;20194;-77
2022/02/15 06:10:12;;;;;;;4.07;1.73;;;;;;;2.81;100.00;95050.13;5030400;28;20222;-84
2022/02/15 06:12:37;;;;;;;3.17;1.00;;;;;;;2.78;100.00;95055.47;5007460;28;20218;-80
2022/02/15 06:15:04;;;;;;;2.10;1.07;;;;;;;2.82;100.00;95052.56;5012254;28;20190;-86
2022/02/15 06:17:30;;;;;;;2.80;0.90;;;;;;;2.86;100.00;95053.19;5031596;28;20186;-86
2022/02/15 06:19:56;;;;;;;2.57;0.97;;;;;;;2.98;100.00;95054.81;5010952;28;20238;-85
2022/02/15 06:22:21;;;;;;;2.00;1.00;;;;;;;3.00;100.00;95049.56;5013941;28;20234;-87
2022/02/15 06:24:46;;;;;;;2.23;1.00;;;;;;;3.06;100.00;95055.06;5017383;28;20574;-83
2022/02/15 06:27:11;;;;;;;1.57;1.10;;;;;;;2.81;100.00;95053.50;5017052;28;20182;-85
2022/02/15 06:29:37;;;;;;;2.00;1.20;;;;;;;2.82;100.00;95062.81;5033421;28;20181;-83
2022/02/15 06:32:02;;;;;;;1.17;0.70;;;;;;;2.78;100.00;95065.75;5033631;28;20201;-84
2022/02/15 06:34:28;;;;;;;1.27;1.13;;;;;;;2.89;100.00;95068.34;5018520;28;20763;-85
2022/02/15 06:36:53;;;;;;;1.90;0.80;;;;;;;2.83;100.00;95069.63;5017626;28;20179;-84
2022/02/15 06:39:19;;;;;;;0.77;0.73;;;;;;;2.80;100.00;95076.69;5018400;28;20233;-84
2022/02/15 06:41:44;;;;;;;0.93;0.70;;;;;;;2.81;100.00;95076.56;5035211;28;20201;-83
2022/02/15 06:44:09;;;;;;;1.70;0.87;;;;;;;2.82;100.00;95087.66;5035306;28;20180;-84
2022/02/15 06:47:17;;;;;;;2.80;1.00;;;;;;;2.83;100.00;95079.88;5018463;28;20178;-86
2022/02/15 06:50:25;;;;;;;1.00;0.90;;;;;;;2.81;100.00;95086.03;5018887;28;20221;-89
2022/02/15 06:52:53;;;;;;;1.20;1.10;;;;;;;2.81;100.00;95076.56;5018954;28;20679;-89
2022/02/15 06:55:49;;;;;;;2.50;1.70;;;;;;;2.86;100.00;95091.66;5034169;28;20267;-89
2022/02/15 06:58:15;;;;;;;1.87;1.60;;;;;;;2.91;100.00;95102.38;5032261;28;20214;-79
2022/02/15 07:00:40;;;;;;;1.90;1.73;;;;;;;2.94;100.00;95107.28;5033654;28;20210;-79
2022/02/15 07:03:05;;;;;;;1.97;1.77;;;;;;;3.02;100.00;95125.50;5033319;28;20188;-79
2022/02/15 07:05:31;;;;;;;5.13;3.93;;;;;;;3.04;100.00;95121.06;5032907;28;20283;-79
2022/02/15 07:07:56;;;;;;;9.80;8.63;;;;;;;3.05;100.00;95129.59;5037728;28;20320;-79
2022/02/15 07:10:21;;;;;;;3.30;2.93;;;;;;;3.05;100.00;95135.53;5035199;28;20240;-79
2022/02/15 07:12:47;;;;;;;2.17;1.97;;;;;;;3.12;100.00;95139.28;5033069;28;20202;-78
2022/02/15 07:15:13;;;;;;;2.23;2.03;;;;;;;3.16;100.00;95147.56;5017360;28;20178;-78
2022/02/15 07:17:39;;;;;;;3.20;2.47;;;;;;;3.15;100.00;95155.38;5017361;28;20200;-77
2022/02/15 07:20:06;;;;;;;2.67;2.20;;;;;;;3.15;100.00;95147.69;5033802;28;20187;-79
2022/02/15 07:22:32;;;;;;;3.80;2.90;;;;;;;3.13;100.00;95147.81;5033793;28;20786;-78
2022/02/15 07:24:57;;;;;;;10.03;5.90;;;;;;;3.16;100.00;95146.75;5050330;28;20186;-78
2022/02/15 07:27:22;;;;;;;13.33;6.63;;;;;;;3.14;100.00;95149.44;5032372;28;20660;-78
2022/02/15 07:29:47;;;;;;;5.03;3.80;;;;;;;3.14;100.00;95152.00;5031545;28;20705;-78
2022/02/15 07:32:13;;;;;;;6.63;4.63;;;;;;;3.15;100.00;95153.63;5010593;28;20205;-78
2022/02/15 07:34:38;;;;;;;5.37;3.63;;;;;;;3.19;100.00;95162.75;5018791;28;20194;-78
2022/02/15 07:37:04;;;;;;;4.27;3.50;;;;;;;3.19;100.00;95167.09;5032059;28;20181;-79
2022/02/15 07:39:29;;;;;;;5.57;3.90;;;;;;;3.24;100.00;95157.28;5032028;28;20209;-79
2022/02/15 07:41:55;;;;;;;6.53;4.00;;;;;;;3.30;100.00;95164.53;5032274;28;20586;-78
2022/02/15 07:44:20;;;;;;;3.50;3.10;;;;;;;3.37;100.00;95160.59;5033847;28;20185;-78
2022/02/15 07:46:47;;;;;;;8.47;6.07;;;;;;;3.38;100.00;95164.78;5030358;28;20718;-78
2022/02/15 07:49:15;;;;;;;9.13;6.00;;;;;;;3.37;100.00;95165.72;5032555;28;20201;-77
2022/02/15 07:51:40;;;;;;;9.57;6.47;;;;;;;3.44;100.00;95168.63;5014227;28;20198;-78
2022/02/15 07:54:06;;;;;;;11.83;5.37;;;;;;;3.45;100.00;95172.88;5011368;28;20679;-78
2022/02/15 07:56:31;;;;;;;7.73;6.00;;;;;;;3.44;100.00;95182.28;5029165;28;20198;-77
2022/02/15 07:58:56;;;;;;;22.80;13.53;;;;;;;3.52;100.00;95181.72;5032040;28;20641;-78
2022/02/15 08:01:22;;;;;;;13.70;9.80;;;;;;;3.50;100.00;95186.16;5014746;28;20207;-79
2022/02/15 08:03:47;;;;;;;11.53;8.07;;;;;;;3.50;100.00;95181.84;5032106;28;20742;-79
2022/02/15 08:06:12;;;;;;;11.03;9.00;;;;;;;3.49;100.00;95193.06;5015785;28;20186;-78
2022/02/15 08:08:37;;;;;;;11.33;8.53;;;;;;;3.54;100.00;95185.84;5030995;28;20193;-78
2022/02/15 08:11:03;;;;;;;8.83;7.17;;;;;;;3.73;100.00;95187.03;5031179;28;20539;-78
2022/02/15 08:13:34;;;;;;;10.07;8.07;;;;;;;3.68;100.00;95192.50;5030043;28;20179;-78
2022/02/15 08:16:01;;;;;;;12.13;8.13;;;;;;;3.70;100.00;95194.00;5031660;28;20203;-80
2022/02/15 08:18:26;;;;;;;17.90;12.50;;;;;;;3.70;100.00;95203.47;5031440;28;20201;-78
2022/02/15 08:20:51;;;;;;;10.67;6.90;;;;;;;3.76;100.00;95204.78;5014413;28;20231;-76
2022/02/15 08:23:17;;;;;;;8.93;6.50;;;;;;;3.79;100.00;95215.63;5010180;28;20187;-78
2022/02/15 08:25:42;;;;;;;7.03;5.00;;;;;;;3.72;100.00;95216.22;5010885;28;20191;-78
2022/02/15 08:28:08;;;;;;;4.77;4.13;;;;;;;3.72;100.00;95216.22;5015130;28;20183;-78
2022/02/15 08:30:33;;;;;;;5.07;4.03;;;;;;;3.91;100.00;95219.88;5030708;28;20286;-79
2022/02/15 08:32:59;;;;;;;5.27;4.17;;;;;;;3.83;100.00;95216.22;5030187;28;20185;-78
2022/02/15 08:35:24;;;;;;;4.97;3.90;;;;;;;3.80;100.00;95214.72;5031712;28;20193;-77
2022/02/15 08:37:51;;;;;;;5.07;4.10;;;;;;;3.79;100.00;95218.19;5013504;28;20233;-77
2022/02/15 08:40:18;;;;;;;6.10;4.30;;;;;;;3.62;100.00;95227.19;5031628;28;20250;-77
2022/02/15 08:42:43;;;;;;;7.67;4.70;;;;;;;3.73;100.00;95228.13;5030500;28;20190;-77
2022/02/15 08:45:10;;;;;;;5.17;4.30;;;;;;;3.71;99.05;95233.38;5030683;28;20186;-78
2022/02/15 08:47:36;;;;;;;4.80;3.97;;;;;;;3.84;98.71;95234.09;5030992;28;20184;-77
2022/02/15 08:50:01;;;;;;;5.47;4.20;;;;;;;4.11;96.77;95231.19;5030200;28;20245;-77
2022/02/15 08:52:26;;;;;;;5.63;4.80;;;;;;;4.19;95.75;95240.91;5028633;28;20698;-78
2022/02/15 08:54:52;;;;;;;6.50;5.37;;;;;;;4.31;95.38;95241.72;5014008;28;20249;-78
2022/02/15 08:57:18;;;;;;;20.17;11.80;;;;;;;4.40;94.26;95248.72;5029680;28;20232;-78
2022/02/15 08:59:43;;;;;;;5.73;5.00;;;;;;;4.21;93.41;95252.69;5031193;28;20260;-79
2022/02/15 09:02:09;;;;;;;5.27;4.50;;;;;;;4.51;93.32;95253.88;5030492;28;20298;-79
2022/02/15 09:04:35;;;;;;;8.30;6.40;;;;;;;4.51;91.80;95257.28;5031290;28;20200;-79
2022/02/15 09:07:01;;;;;;;12.50;7.40;;;;;;;4.66;91.81;95255.25;5030313;28;20260;-78
2022/02/15 09:09:26;;;;;;;9.00;5.77;;;;;;;4.74;91.62;95258.06;5031803;28;20188;-78
2022/02/15 09:11:52;;;;;;;15.57;6.73;;;;;;;4.90;91.54;95252.53;5030303;28;20524;-78
2022/02/15 09:14:17;;;;;;;6.10;4.97;;;;;;;5.03;90.50;95263.47;5031939;28;20235;-79
2022/02/15 09:16:42;;;;;;;17.97;11.27;;;;;;;5.11;88.74;95268.03;5014537;28;20640;-79
2022/02/15 09:19:08;;;;;;;18.37;13.30;;;;;;;5.36;88.13;95267.72;5031208;28;20289;-78
2022/02/15 09:21:34;;;;;;;6.53;5.40;;;;;;;5.27;87.36;95267.66;5029733;28;20205;-79
2022/02/15 09:24:00;;;;;;;8.03;5.10;;;;;;;5.25;87.08;95265.19;5032013;28;20664;-78
2022/02/15 09:26:25;;;;;;;7.77;4.63;;;;;;;5.09;86.04;95265.59;5030324;28;20379;-79
2022/02/15 09:28:52;;;;;;;7.27;4.50;;;;;;;5.10;86.74;95274.94;5030234;28;20195;-79
2022/02/15 09:31:17;;;;;;;4.43;3.73;;;;;;;5.04;86.91;95266.91;5029581;28;20300;-79
2022/02/15 09:33:42;;;;;;;7.47;5.00;;;;;;;4.92;86.95;95267.84;5030564;28;20205;-79
2022/02/15 09:36:08;;;;;;;5.73;4.10;;;;;;;4.95;86.98;95268.44;5030212;28;20201;-77
2022/02/15 09:38:33;;;;;;;4.87;3.77;;;;;;;5.00;86.68;95266.31;5010547;28;20586;-77
2022/02/15 09:41:02;;;;;;;5.10;3.37;;;;;;;5.16;85.19;95263.34;5011873;28;20293;-78
2022/02/15 09:43:28;;;;;;;4.23;3.53;;;;;;;4.87;85.00;95272.56;5005317;28;20186;-79
2022/02/15 09:45:53;;;;;;;4.93;3.43;;;;;;;4.88;85.24;95274.19;5031632;28;20182;-78
2022/02/15 09:48:24;;;;;;;3.93;3.00;;;;;;;4.84;85.00;95273.59;5030271;28;20576;-78
2022/02/15 09:50:49;;;;;;;4.23;2.80;;;;;;;4.88;85.65;95271.63;5007813;28;20685;-78
2022/02/15 09:53:14;;;;;;;3.33;3.00;;;;;;;4.97;84.78;95269.13;5018451;28;20205;-78
2022/02/15 09:55:40;;;;;;;3.63;2.97;;;;;;;4.99;84.49;95276.72;5014486;28;20192;-78
2022/02/15 09:58:05;;;;;;;3.37;2.60;;;;;;;5.22;85.07;95282.66;5032545;28;20281;-78
2022/02/15 10:00:30;;;;;;;5.23;3.23;;;;;;;5.35;84.20;95280.72;5034031;28;20288;-78
2022/02/15 10:02:57;;;;;;;2.67;2.27;;;;;;;5.02;82.24;95276.47;5032861;28;20547;-78
2022/02/15 10:05:22;;;;;;;3.17;2.40;;;;;;;5.07;82.33;95285.50;5034433;28;20663;-78
2022/02/15 10:07:57;;;;;;;3.90;2.30;;;;;;;5.07;82.21;95297.53;5034407;28;20173;-78
2022/02/15 10:10:34;;;;;;;5.23;2.60;;;;;;;4.93;84.49;95288.31;5032061;28;20273;-79
2022/02/15 10:13:04;;;;;;;5.53;2.93;;;;;;;5.13;83.79;95294.50;5024453;28;20216;-79
2022/02/15 10:15:34;;;;;;;4.73;2.77;;;;;;;5.21;83.74;95292.13;5006034;28;20175;-79
2022/02/15 10:18:23;;;;;;;4.07;2.87;;;;;;;5.10;82.19;95292.97;5021421;28;20631;-79
2022/02/15 10:20:54;;;;;;;3.67;2.50;;;;;;;5.15;83.66;95296.94;5016424;28;20775;-78
2022/02/15 10:23:30;;;;;;;3.17;2.53;;;;;;;5.35;82.51;95294.41;5032914;28;20183;-78
2022/02/15 10:25:56;;;;;;;2.60;2.40;;;;;;;5.26;82.70;95302.88;5007202;28;20195;-78
2022/02/15 10:28:21;;;;;;;3.13;2.20;;;;;;;5.40;80.56;95302.59;5035112;28;20173;-77
2022/02/15 10:30:55;;;;;;;4.07;2.37;;;;;;;5.48;79.59;95307.16;5037063;28;20283;-78
2022/02/15 10:33:22;;;;;;;3.73;2.23;;;;;;;5.49;80.54;95311.38;5031716;28;20175;-78
2022/02/15 10:36:06;;;;;;;3.07;1.93;;;;;;;5.67;79.37;95315.03;5032503;28;20653;-78
2022/02/15 10:38:34;;;;;;;3.00;2.70;;;;;;;5.56;79.28;95311.66;5033503;28;20194;-78
2022/02/15 10:41:07;;;;;;;2.70;2.37;;;;;;;5.62;78.42;95313.75;5032003;28;20209;-77
2022/02/15 10:43:46;;;;;;;2.83;2.40;;;;;;;5.70;78.69;95324.28;5031111;28;20175;-78
2022/02/15 10:46:14;;;;;;;5.47;3.23;;;;;;;5.84;79.57;95336.88;5020735;28;20190;-78
2022/02/15 10:48:40;;;;;;;4.60;3.17;;;;;;;5.97;77.84;95337.53;5033388;28;20175;-77
2022/02/15 10:51:05;;;;;;;5.03;2.77;;;;;;;5.92;77.68;95331.94;5026768;28;20249;-78
2022/02/15 10:53:31;;;;;;;4.47;3.17;;;;;;;6.08;77.08;95330.69;5017943;28;20202;-78
2022/02/15 10:55:57;;;;;;;4.40;2.70;;;;;;;6.00;75.46;95336.47;5014918;28;20195;-78
2022/02/15 10:58:23;;;;;;;4.50;2.63;;;;;;;6.06;77.21;95338.53;5012731;28;20206;-78
2022/02/15 11:00:49;;;;;;;2.73;2.20;;;;;;;6.34;74.12;95344.81;5028757;28;20230;-78
2022/02/15 11:03:16;;;;;;;3.63;2.60;;;;;;;6.37;73.61;95339.44;5027763;28;20217;-78
2022/02/15 11:05:41;;;;;;;5.33;2.80;;;;;;;6.49;74.27;95345.34;5030994;28;20178;-78
2022/02/15 11:08:07;;;;;;;3.13;2.30;;;;;;;6.55;74.11;95362.88;5029709;28;20206;-79
2022/02/15 11:10:45;;;;;;;3.20;2.40;;;;;;;6.59;73.36;95353.13;5028103;28;20451;-79
2022/02/15 11:13:11;;;;;;;3.97;2.50;;;;;;;6.26;73.03;95347.22;5023699;28;20198;-78
2022/02/15 11:15:41;;;;;;;5.10;2.93;;;;;;;6.05;73.91;95348.97;5008106;28;20187;-78
2022/02/15 11:18:08;;;;;;;3.50;2.87;;;;;;;6.09;74.53;95363.25;5013291;28;20206;-78
2022/02/15 11:20:53;;;;;;;3.07;2.77;;;;;;;6.23;74.46;95365.53;5007757;28;20202;-78
2022/02/15 11:23:30;;;;;;;4.50;2.83;;;;;;;6.12;74.74;95363.03;5011196;28;20268;-77
2022/02/15 11:26:07;;;;;;;4.87;2.83;;;;;;;6.34;74.34;95365.47;5022221;28;20185;-78
2022/02/15 11:28:32;;;;;;;3.73;2.50;;;;;;;6.19;74.30;95361.59;5011563;28;20213;-77
2022/02/15 11:31:00;;;;;;;4.03;3.27;;;;;;;6.03;74.35;95366.34;5001426;28;20196;-77
2022/02/15 11:33:30;;;;;;;4.10;2.93;;;;;;;6.12;73.85;95368.19;5024030;28;20182;-77
2022/02/15 11:36:13;;;;;;;4.20;2.87;;;;;;;6.12;73.70;95365.59;5031435;28;20178;-77
2022/02/15 11:38:50;;;;;;;2.87;2.50;;;;;;;6.31;72.41;95367.50;5031342;28;20202;-77